Time;durP1;ratioP1;P1;durP2;ratioP2;P2;SDS_P1;SDS_P2;PMS_P1;PMS_P2;Temp;Humidity;BMP_temperature;BMP_pressure;BME280_temperature;BME280_humidity;BME280_pressure;Samples;Min_cycle;Max_cycle;Signal;HPM_P1;HPM_P2
2021/01/23 00:01:37;;;;;;;10.88;6.63;;;;;;;4.09;100.00;99756.22;5071453;28;20047;-62
2021/01/23 00:04:03;;;;;;;13.02;6.28;;;;;;;4.07;100.00;99742.13;5053215;28;20190;-63
2021/01/23 00:06:28;;;;;;;14.68;6.72;;;;;;;4.05;100.00;99730.72;5071313;28;20051;-62
2021/01/23 00:08:54;;;;;;;13.43;6.13;;;;;;;4.01;100.00;99721.41;5071360;28;20048;-62
2021/01/23 00:11:19;;;;;;;13.68;6.85;;;;;;;4.01;100.00;99724.13;5071232;28;20048;-62
2021/01/23 00:13:45;;;;;;;12.38;6.60;;;;;;;3.99;100.00;99718.09;5071406;28;20032;-62
2021/01/23 00:16:10;;;;;;;13.00;5.88;;;;;;;3.97;100.00;99720.19;5071192;28;20040;-63
2021/01/23 00:18:36;;;;;;;11.00;6.28;;;;;;;3.93;100.00;99709.84;5071159;28;20046;-62
2021/01/23 00:21:02;;;;;;;9.48;6.13;;;;;;;3.91;100.00;99706.56;5071076;28;20071;-63
2021/01/23 00:23:28;;;;;;;11.27;5.88;;;;;;;3.91;100.00;99706.56;5070902;28;20043;-62
2021/01/23 00:25:53;;;;;;;11.38;6.57;;;;;;;3.89;100.00;99697.84;5071214;28;20044;-63
2021/01/23 00:28:19;;;;;;;10.23;5.63;;;;;;;3.88;100.00;99695.38;5071193;28;20052;-63
2021/01/23 00:30:45;;;;;;;8.75;5.15;;;;;;;3.86;100.00;99697.50;5070879;28;20044;-63
2021/01/23 00:33:10;;;;;;;13.57;5.97;;;;;;;3.85;100.00;99691.28;5071015;28;20078;-62
2021/01/23 00:35:36;;;;;;;13.93;5.22;;;;;;;3.83;100.00;99692.56;5070945;28;20075;-62
2021/01/23 00:38:03;;;;;;;9.95;5.43;;;;;;;3.82;100.00;99693.59;5070748;28;20123;-62
2021/01/23 00:40:28;;;;;;;11.68;5.75;;;;;;;3.81;100.00;99679.25;5071117;28;20063;-63
2021/01/23 00:42:55;;;;;;;9.10;4.60;;;;;;;3.80;100.00;99680.31;5070819;28;20463;-62
2021/01/23 00:45:21;;;;;;;9.82;5.53;;;;;;;3.80;100.00;99677.59;5070723;28;20123;-62
2021/01/23 00:47:47;;;;;;;13.05;5.60;;;;;;;3.79;100.00;99686.75;5070864;28;20178;-62
2021/01/23 00:50:12;;;;;;;7.97;5.30;;;;;;;3.78;100.00;99668.91;5070779;28;20039;-62
2021/01/23 00:52:38;;;;;;;20.88;5.90;;;;;;;3.78;100.00;99677.00;5071159;28;20045;-62
2021/01/23 00:55:04;;;;;;;7.72;4.80;;;;;;;3.80;100.00;99683.00;5070708;28;20070;-63
2021/01/23 00:57:30;;;;;;;11.50;5.00;;;;;;;3.79;100.00;99675.94;5070868;28;20047;-62
2021/01/23 00:59:55;;;;;;;7.60;4.15;;;;;;;3.82;100.00;99675.53;5070591;28;20119;-63
2021/01/23 01:02:21;;;;;;;6.45;3.92;;;;;;;3.83;100.00;99681.75;5070662;28;20110;-62
2021/01/23 01:04:46;;;;;;;10.88;4.65;;;;;;;3.85;100.00;99655.34;5070443;28;20055;-62
2021/01/23 01:07:12;;;;;;;8.65;4.20;;;;;;;3.85;100.00;99653.47;5070575;28;20040;-62
2021/01/23 01:09:37;;;;;;;6.30;3.80;;;;;;;3.87;100.00;99655.94;5070585;28;20047;-63
2021/01/23 01:12:03;;;;;;;7.35;3.97;;;;;;;3.90;100.00;99664.41;5070565;28;20032;-63
2021/01/23 01:14:29;;;;;;;8.38;4.07;;;;;;;3.93;100.00;99653.13;5070632;28;20037;-63
2021/01/23 01:16:54;;;;;;;11.15;4.93;;;;;;;3.96;100.00;99659.13;5070439;28;20037;-62
2021/01/23 01:19:20;;;;;;;12.15;4.93;;;;;;;3.97;100.00;99639.97;5070462;28;20040;-62
2021/01/23 01:21:45;;;;;;;9.80;3.72;;;;;;;3.98;100.00;99638.09;5070561;28;20041;-62
2021/01/23 01:24:11;;;;;;;10.10;3.95;;;;;;;3.98;100.00;99635.41;5070319;28;20044;-62
2021/01/23 01:26:37;;;;;;;9.60;3.85;;;;;;;3.97;100.00;99629.19;5070440;28;20043;-63
2021/01/23 01:29:02;;;;;;;6.40;3.63;;;;;;;3.97;100.00;99625.66;5070464;28;20402;-63
2021/01/23 01:31:28;;;;;;;7.90;3.65;;;;;;;3.97;100.00;99617.56;5070409;28;20048;-63
2021/01/23 01:33:53;;;;;;;4.75;2.97;;;;;;;3.97;100.00;99622.97;5073091;28;20474;-62
2021/01/23 01:36:19;;;;;;;4.78;3.53;;;;;;;3.98;100.00;99611.91;5074076;28;20119;-63
2021/01/23 01:38:45;;;;;;;8.82;3.80;;;;;;;4.00;100.00;99611.72;5074458;28;20033;-63
2021/01/23 01:41:11;;;;;;;8.25;3.20;;;;;;;4.01;100.00;99606.09;5074090;28;20413;-62
2021/01/23 01:43:36;;;;;;;10.35;3.03;;;;;;;4.02;100.00;99604.22;5073981;28;20458;-63
2021/01/23 01:46:05;;;;;;;7.90;2.80;;;;;;;4.02;100.00;99601.50;5074162;28;20441;-62
2021/01/23 01:48:31;;;;;;;8.70;3.45;;;;;;;4.01;100.00;99603.38;5073982;28;20036;-63
2021/01/23 01:50:57;;;;;;;6.10;3.10;;;;;;;3.99;100.00;99594.66;5073841;28;20486;-63
2021/01/23 01:53:23;;;;;;;7.57;2.83;;;;;;;3.99;100.00;99593.84;5073969;28;20032;-62
2021/01/23 01:55:49;;;;;;;7.68;2.42;;;;;;;4.00;100.00;99595.50;5073819;28;20509;-63
2021/01/23 01:58:16;;;;;;;6.28;2.70;;;;;;;4.00;100.00;99585.53;5073742;28;20052;-63
2021/01/23 02:00:42;;;;;;;7.72;2.38;;;;;;;4.01;100.00;99586.34;5073723;28;20039;-63
2021/01/23 02:03:23;;;;;;;3.58;3.05;;;;;;;4.01;100.00;99580.94;5073578;28;20041;-62
2021/01/23 02:06:01;;;;;;;5.28;2.80;;;;;;;4.01;100.00;99586.34;5073569;28;20410;-63
2021/01/23 02:08:51;;;;;;;6.63;2.47;;;;;;;4.00;100.00;99577.44;5073623;28;20051;-63
2021/01/23 02:11:36;;;;;;;8.35;2.63;;;;;;;3.99;100.00;99578.44;5073674;28;20036;-62
2021/01/23 02:14:13;;;;;;;6.22;2.90;;;;;;;3.99;100.00;99566.81;5073432;28;20048;-62
2021/01/23 02:16:46;;;;;;;4.78;3.08;;;;;;;4.00;100.00;99563.09;5073534;28;20047;-63
2021/01/23 02:19:27;;;;;;;10.75;3.20;;;;;;;4.01;100.00;99564.75;5073484;28;20051;-62
2021/01/23 02:22:20;;;;;;;6.95;2.63;;;;;;;4.02;100.00;99560.97;5073382;28;20029;-62
2021/01/23 02:24:49;;;;;;;10.13;2.22;;;;;;;4.04;100.00;99562.41;5073308;28;20123;-62
2021/01/23 02:28:09;;;;;;;5.85;2.38;;;;;;;4.07;100.00;99563.81;5073361;28;20068;-62
2021/01/23 02:30:45;;;;;;;4.13;2.00;;;;;;;4.07;100.00;99561.09;4991534;28;20401;-63
2021/01/23 02:33:13;;;;;;;5.88;3.30;;;;;;;4.04;100.00;99557.00;5071962;28;20044;-62
2021/01/23 02:35:41;;;;;;;10.15;3.85;;;;;;;4.03;100.00;99555.34;5073155;28;20052;-63
2021/01/23 02:38:08;;;;;;;7.85;3.55;;;;;;;4.02;100.00;99555.56;5073052;28;20040;-62
2021/01/23 02:40:34;;;;;;;10.13;4.50;;;;;;;4.02;100.00;99550.19;5072917;28;20098;-63
2021/01/23 02:43:00;;;;;;;5.78;3.70;;;;;;;4.02;100.00;99544.78;5073452;28;20040;-63
2021/01/23 02:45:26;;;;;;;8.48;4.35;;;;;;;4.02;100.00;99550.19;5071671;28;20179;-62
2021/01/23 02:47:51;;;;;;;9.48;4.60;;;;;;;4.01;100.00;99543.13;5072923;28;20048;-62
2021/01/23 02:50:17;;;;;;;11.00;4.97;;;;;;;4.00;100.00;99541.47;5073063;28;20036;-62
2021/01/23 02:53:10;;;;;;;11.23;4.30;;;;;;;4.00;100.00;99541.47;5072819;28;20127;-63
2021/01/23 02:55:39;;;;;;;10.25;3.85;;;;;;;4.00;100.00;99545.00;5073226;28;20040;-63
2021/01/23 02:58:08;;;;;;;7.03;3.50;;;;;;;4.01;100.00;99543.94;5072840;28;20474;-62
2021/01/23 03:00:35;;;;;;;7.22;3.72;;;;;;;4.02;100.00;99544.78;5072585;28;20033;-63
2021/01/23 03:03:02;;;;;;;8.40;4.40;;;;;;;4.05;100.00;99533.50;5072549;28;20115;-62
2021/01/23 03:05:31;;;;;;;11.75;6.00;;;;;;;4.07;100.00;99536.78;5072336;28;20045;-62
2021/01/23 03:07:57;;;;;;;7.97;5.25;;;;;;;4.08;100.00;99533.03;5072609;28;20028;-63
2021/01/23 03:10:52;;;;;;;11.85;5.28;;;;;;;4.10;100.00;99536.31;5072373;28;20052;-63
2021/01/23 03:13:18;;;;;;;12.27;4.72;;;;;;;4.09;100.00;99540.91;4990570;28;20089;-63
2021/01/23 03:15:43;;;;;;;6.63;4.20;;;;;;;4.09;100.00;99540.09;4990914;28;20045;-63
2021/01/23 03:18:10;;;;;;;11.20;4.30;;;;;;;4.09;100.00;99534.69;5055777;28;20049;-63
2021/01/23 03:20:36;;;;;;;8.45;3.30;;;;;;;4.10;100.00;99534.44;5072160;28;20040;-63
2021/01/23 03:23:03;;;;;;;9.50;3.78;;;;;;;4.09;100.00;99535.50;5072205;28;20093;-62
2021/01/23 03:25:29;;;;;;;11.80;4.15;;;;;;;4.09;100.00;99540.09;5072234;28;20052;-63
2021/01/23 03:27:56;;;;;;;11.57;3.90;;;;;;;4.10;100.00;99539.03;5072060;28;20037;-63
2021/01/23 03:30:22;;;;;;;7.38;3.05;;;;;;;4.11;100.00;99532.56;5072041;28;20036;-62
2021/01/23 03:32:49;;;;;;;12.02;3.40;;;;;;;4.10;100.00;99533.63;5072053;28;20037;-63
2021/01/23 03:35:15;;;;;;;9.30;2.90;;;;;;;4.11;100.00;99532.56;5072339;28;20037;-62
2021/01/23 03:37:41;;;;;;;6.85;3.08;;;;;;;4.11;100.00;99533.38;5071968;28;20174;-63
2021/01/23 03:40:08;;;;;;;7.22;3.30;;;;;;;4.10;100.00;99530.91;5071845;28;20086;-63
2021/01/23 03:42:34;;;;;;;13.02;3.47;;;;;;;4.09;100.00;99534.69;5071759;28;20041;-63
2021/01/23 03:45:00;;;;;;;12.20;3.40;;;;;;;4.10;100.00;99530.91;5071664;28;20040;-63
2021/01/23 03:47:26;;;;;;;11.43;3.55;;;;;;;4.09;100.00;99529.28;5071820;28;20119;-63
2021/01/23 03:49:52;;;;;;;7.45;2.90;;;;;;;4.09;100.00;99534.69;5071464;28;20078;-62
2021/01/23 03:52:17;;;;;;;6.57;2.80;;;;;;;4.08;100.00;99519.53;5071570;28;20040;-63
2021/01/23 03:54:43;;;;;;;12.20;3.63;;;;;;;4.07;100.00;99531.38;5071887;28;20036;-63
2021/01/23 03:57:09;;;;;;;11.07;3.33;;;;;;;4.07;100.00;99520.59;5071303;28;20109;-63
2021/01/23 03:59:35;;;;;;;8.73;3.03;;;;;;;4.06;100.00;99522.47;5071390;28;20083;-62
2021/01/23 04:02:01;;;;;;;9.85;2.92;;;;;;;4.08;100.00;99519.53;5071945;28;20344;-63
2021/01/23 04:04:26;;;;;;;6.20;3.38;;;;;;;4.07;100.00;99520.59;5071193;28;20483;-63
2021/01/23 04:06:52;;;;;;;10.65;4.10;;;;;;;4.07;100.00;99520.59;5071810;28;20041;-63
2021/01/23 04:09:17;;;;;;;7.00;3.22;;;;;;;4.07;100.00;99523.28;5071307;28;20510;-63
2021/01/23 04:11:43;;;;;;;12.35;2.58;;;;;;;4.06;100.00;99519.75;5071279;28;20371;-63
2021/01/23 04:14:08;;;;;;;10.10;3.17;;;;;;;4.06;100.00;99513.53;5071268;28;20509;-63
2021/01/23 04:16:34;;;;;;;6.32;2.92;;;;;;;4.06;100.00;99518.94;5071183;28;20097;-63
2021/01/23 04:18:59;;;;;;;10.07;2.70;;;;;;;4.06;100.00;99513.53;5071219;28;20043;-62
2021/01/23 04:21:26;;;;;;;15.43;3.58;;;;;;;4.06;100.00;99518.94;5071259;28;20120;-63
2021/01/23 04:23:51;;;;;;;7.75;2.63;;;;;;;4.06;100.00;99521.63;5071101;28;20560;-62
2021/01/23 04:26:17;;;;;;;10.98;3.55;;;;;;;4.06;100.00;99532.44;5071124;28;20081;-63
2021/01/23 04:28:42;;;;;;;6.20;2.88;;;;;;;4.03;100.00;99522.94;5070959;28;20059;-63
2021/01/23 04:31:08;;;;;;;8.10;3.15;;;;;;;4.04;100.00;99521.88;5070984;28;20104;-63
2021/01/23 04:33:34;;;;;;;10.07;3.25;;;;;;;4.04;100.00;99521.88;5070840;28;20032;-63
2021/01/23 04:36:01;;;;;;;6.15;2.88;;;;;;;4.07;100.00;99528.69;5071059;28;20040;-63
2021/01/23 04:38:28;;;;;;;9.93;2.90;;;;;;;4.07;100.00;99525.97;5071062;28;20036;-63
2021/01/23 04:40:55;;;;;;;6.95;2.70;;;;;;;4.10;100.00;99528.22;5070841;28;20067;-62
2021/01/23 04:43:22;;;;;;;7.72;2.28;;;;;;;4.11;100.00;99529.84;5070913;28;20044;-62
2021/01/23 04:45:48;;;;;;;9.88;2.28;;;;;;;4.13;100.00;99533.16;5070879;28;20501;-62
2021/01/23 04:48:18;;;;;;;7.70;1.17;;;;;;;4.14;100.00;99532.09;5070769;28;20040;-62
2021/01/23 04:50:45;;;;;;;6.63;1.70;;;;;;;4.13;100.00;99531.28;5070797;28;20051;-63
2021/01/23 04:53:11;;;;;;;6.10;0.82;;;;;;;4.13;100.00;99530.44;5070880;28;20521;-62
2021/01/23 04:55:36;;;;;;;5.30;1.00;;;;;;;4.13;100.00;99525.03;5070701;28;20037;-63
2021/01/23 04:58:02;;;;;;;4.18;0.70;;;;;;;4.14;100.00;99526.69;5070839;28;20037;-63
2021/01/23 05:00:28;;;;;;;10.18;1.13;;;;;;;4.15;100.00;99528.34;5052757;28;20161;-62
2021/01/23 05:03:04;;;;;;;4.53;0.68;;;;;;;4.15;100.00;99539.13;5070665;28;20505;-63
2021/01/23 05:05:31;;;;;;;4.97;0.68;;;;;;;4.16;100.00;99535.38;5070499;28;20445;-62
2021/01/23 05:08:12;;;;;;;2.35;0.60;;;;;;;4.18;100.00;99541.41;5072047;28;20123;-63
2021/01/23 05:10:39;;;;;;;3.30;1.00;;;;;;;4.18;100.00;99544.94;5074781;28;20044;-63
2021/01/23 05:13:15;;;;;;;8.63;2.25;;;;;;;4.20;100.00;99550.91;5074615;28;20482;-63
2021/01/23 05:15:43;;;;;;;7.20;1.00;;;;;;;4.21;100.00;99549.84;5074723;28;20024;-63
2021/01/23 05:18:10;;;;;;;5.47;1.35;;;;;;;4.20;100.00;99550.09;5074678;28;20047;-62
2021/01/23 05:20:39;;;;;;;4.93;1.10;;;;;;;4.18;100.00;99549.50;5074461;28;20040;-62
2021/01/23 05:23:07;;;;;;;5.53;1.15;;;;;;;4.15;100.00;99553.47;5074476;28;20462;-63
2021/01/23 05:25:34;;;;;;;4.15;1.13;;;;;;;4.12;100.00;99564.75;5074422;28;20032;-63
2021/01/23 05:28:01;;;;;;;4.97;1.00;;;;;;;4.09;100.00;99564.41;5074352;28;20044;-63
2021/01/23 05:30:45;;;;;;;4.30;1.00;;;;;;;4.05;100.00;99571.31;5074313;28;20056;-63
2021/01/23 05:33:26;;;;;;;3.90;1.13;;;;;;;4.01;100.00;99572.84;5074355;28;20064;-63
2021/01/23 05:36:06;;;;;;;4.78;1.35;;;;;;;3.98;100.00;99570.56;5074428;28;20043;-62
2021/01/23 05:38:32;;;;;;;7.40;1.70;;;;;;;3.94;100.00;99581.84;5074264;28;20572;-62
2021/01/23 05:41:04;;;;;;;2.88;1.20;;;;;;;3.93;100.00;99585.59;5074121;28;20033;-63
2021/01/23 05:43:33;;;;;;;4.63;1.10;;;;;;;3.92;100.00;99588.53;5074021;28;20042;-63
2021/01/23 05:46:29;;;;;;;5.93;1.60;;;;;;;3.89;100.00;99587.13;5074047;28;20043;-63
2021/01/23 05:48:55;;;;;;;7.93;1.40;;;;;;;3.88;100.00;99592.75;5073981;28;20047;-63
2021/01/23 05:51:23;;;;;;;3.33;0.90;;;;;;;3.87;100.00;99597.34;5073986;28;20123;-63
2021/01/23 05:53:49;;;;;;;4.35;1.10;;;;;;;3.86;100.00;99595.69;5073847;28;20040;-62
2021/01/23 05:56:15;;;;;;;5.88;1.17;;;;;;;3.87;100.00;99597.34;5073845;28;20048;-63
2021/01/23 05:58:42;;;;;;;4.47;1.17;;;;;;;3.86;100.00;99603.78;5073827;28;20064;-63
2021/01/23 06:01:21;;;;;;;9.98;1.58;;;;;;;3.86;100.00;99598.38;5073764;28;20538;-63
2021/01/23 06:03:59;;;;;;;3.55;0.90;;;;;;;3.85;100.00;99612.94;5073547;28;20659;-63
2021/01/23 06:06:24;;;;;;;9.00;1.40;;;;;;;3.83;100.00;99596.16;5073882;28;20050;-63
2021/01/23 06:08:53;;;;;;;7.97;1.25;;;;;;;3.80;100.00;99606.56;5073626;28;20135;-63
2021/01/23 06:11:19;;;;;;;7.10;1.35;;;;;;;3.78;100.00;99617.59;5073628;28;20036;-63
2021/01/23 06:13:52;;;;;;;6.75;1.30;;;;;;;3.76;100.00;99627.81;5073516;28;20036;-62
2021/01/23 06:16:35;;;;;;;4.97;1.50;;;;;;;3.73;100.00;99622.88;5073550;28;20036;-63
2021/01/23 06:19:07;;;;;;;5.07;1.73;;;;;;;3.71;100.00;99613.34;5073292;28;20194;-63
2021/01/23 06:21:45;;;;;;;5.95;1.35;;;;;;;3.68;100.00;99614.63;5073821;28;20110;-63
2021/01/23 06:24:13;;;;;;;7.53;1.70;;;;;;;3.67;100.00;99623.78;5073215;28;20036;-63
2021/01/23 06:26:53;;;;;;;5.63;1.27;;;;;;;3.62;100.00;99626.31;5073260;28;20036;-62
2021/01/23 06:29:42;;;;;;;4.95;1.42;;;;;;;3.62;100.00;99627.13;5073278;28;20485;-63
2021/01/23 06:32:14;;;;;;;3.63;1.58;;;;;;;3.62;100.00;99626.31;5073314;28;20106;-63
2021/01/23 06:34:50;;;;;;;6.15;1.17;;;;;;;3.60;100.00;99631.13;5073164;28;20093;-63
2021/01/23 06:37:37;;;;;;;5.65;1.50;;;;;;;3.59;100.00;99637.56;5073176;28;20041;-63
2021/01/23 06:40:10;;;;;;;11.07;1.60;;;;;;;3.59;100.00;99651.06;5073152;28;20110;-63
2021/01/23 06:42:41;;;;;;;8.35;1.98;;;;;;;3.59;100.00;99659.16;5073073;28;20485;-63
2021/01/23 06:45:27;;;;;;;4.07;1.27;;;;;;;3.61;100.00;99657.06;5072963;28;20040;-63
2021/01/23 06:47:56;;;;;;;6.75;1.48;;;;;;;3.61;100.00;99659.75;5073152;28;20398;-63
2021/01/23 06:50:39;;;;;;;5.60;1.35;;;;;;;3.59;100.00;99662.69;5072810;28;20111;-62
2021/01/23 06:53:06;;;;;;;9.23;1.58;;;;;;;3.59;100.00;99669.97;5072923;28;20041;-63
2021/01/23 06:55:58;;;;;;;7.97;1.63;;;;;;;3.57;100.00;99688.28;5072801;28;20028;-63
2021/01/23 06:58:26;;;;;;;8.40;1.85;;;;;;;3.56;100.00;99692.03;5068833;28;20060;-62
2021/01/23 07:00:56;;;;;;;6.35;1.83;;;;;;;3.54;100.00;99694.94;5072635;28;20478;-63
2021/01/23 07:03:23;;;;;;;4.90;1.30;;;;;;;3.54;100.00;99691.41;5072433;28;20406;-62
2021/01/23 07:05:51;;;;;;;8.32;1.65;;;;;;;3.53;100.00;99697.88;5072473;28;20067;-63
2021/01/23 07:08:21;;;;;;;6.05;1.50;;;;;;;3.54;100.00;99707.63;5072599;28;20085;-62
2021/01/23 07:11:13;;;;;;;5.85;1.70;;;;;;;3.52;100.00;99712.41;5072383;28;20040;-63
2021/01/23 07:13:56;;;;;;;14.13;1.70;;;;;;;3.50;100.00;99719.91;5072414;28;20047;-63
2021/01/23 07:16:21;;;;;;;7.68;1.85;;;;;;;3.48;100.00;99730.13;5072397;28;20032;-63
2021/01/23 07:18:58;;;;;;;9.90;1.88;;;;;;;3.47;100.00;99725.75;5072199;28;20048;-63
2021/01/23 07:21:25;;;;;;;4.40;1.45;;;;;;;3.45;100.00;99730.53;5072408;28;20040;-62
2021/01/23 07:23:55;;;;;;;7.82;1.75;;;;;;;3.45;100.00;99733.25;5072152;28;20037;-63
2021/01/23 07:26:22;;;;;;;7.38;2.05;;;;;;;3.45;100.00;99738.63;5072136;28;20517;-63
2021/01/23 07:28:51;;;;;;;8.15;2.17;;;;;;;3.44;100.00;99745.91;5072131;28;20033;-63
2021/01/23 07:31:20;;;;;;;4.78;1.38;;;;;;;3.45;100.00;99744.03;5071431;28;20036;-62
2021/01/23 07:33:46;;;;;;;13.23;1.80;;;;;;;3.45;100.00;99750.25;5072174;28;20094;-63
2021/01/23 07:36:31;;;;;;;6.70;2.05;;;;;;;3.47;100.00;99760.81;5072017;28;20032;-63
2021/01/23 07:38:59;;;;;;;6.05;1.38;;;;;;;3.48;100.00;99770.59;5071837;28;20040;-63
2021/01/23 07:41:30;;;;;;;11.25;1.48;;;;;;;3.47;100.00;99768.94;5071750;28;20040;-63
2021/01/23 07:43:57;;;;;;;7.20;1.55;;;;;;;3.46;100.00;99772.69;5071645;28;20037;-62
2021/01/23 07:46:23;;;;;;;5.60;1.63;;;;;;;3.48;100.00;99781.41;5071807;28;20040;-63
2021/01/23 07:48:49;;;;;;;9.43;2.38;;;;;;;3.48;100.00;99784.09;5071742;28;20043;-63
2021/01/23 07:51:26;;;;;;;7.22;1.38;;;;;;;3.48;100.00;99792.19;5053548;28;20277;-62
2021/01/23 07:54:05;;;;;;;9.07;1.60;;;;;;;3.48;100.00;99797.59;5071577;28;20111;-63
2021/01/23 07:56:30;;;;;;;9.38;2.08;;;;;;;3.48;100.00;99797.59;5071539;28;20040;-63
2021/01/23 07:58:56;;;;;;;11.38;1.58;;;;;;;3.46;100.00;99796.97;5071489;28;20047;-63
2021/01/23 08:01:22;;;;;;;6.20;1.48;;;;;;;3.45;100.00;99803.41;5071540;28;20029;-63
2021/01/23 08:03:47;;;;;;;7.68;2.25;;;;;;;3.46;100.00;99815.84;5071171;28;20494;-63
2021/01/23 08:06:23;;;;;;;3.42;1.45;;;;;;;3.45;100.00;99825.00;5071890;28;20398;-63
2021/01/23 08:08:50;;;;;;;6.05;1.33;;;;;;;3.46;100.00;99826.66;5071320;28;20041;-63
2021/01/23 08:11:40;;;;;;;7.40;1.83;;;;;;;3.45;100.00;99838.50;5071300;28;20386;-63
2021/01/23 08:14:12;;;;;;;8.13;2.00;;;;;;;3.45;100.00;99830.41;5071325;28;20398;-63
2021/01/23 08:16:54;;;;;;;8.77;2.30;;;;;;;3.45;100.00;99835.81;5071151;28;20060;-63
2021/01/23 08:19:21;;;;;;;9.05;2.03;;;;;;;3.45;100.00;99838.50;5071430;28;20109;-62
2021/01/23 08:22:04;;;;;;;9.10;1.55;;;;;;;3.44;100.00;99855.75;5071192;28;20064;-63
2021/01/23 08:24:30;;;;;;;12.05;2.35;;;;;;;3.45;100.00;99852.00;5071082;28;20040;-62
2021/01/23 08:27:15;;;;;;;3.50;1.77;;;;;;;3.44;100.00;99861.97;5071117;28;20048;-63
2021/01/23 08:29:51;;;;;;;7.20;1.83;;;;;;;3.43;100.00;99860.31;5071029;28;20036;-63
2021/01/23 08:32:17;;;;;;;6.80;2.20;;;;;;;3.41;100.00;99866.97;5070967;28;20444;-63
2021/01/23 08:34:46;;;;;;;9.05;2.78;;;;;;;3.41;100.00;99861.59;5070988;28;20031;-63
2021/01/23 08:37:12;;;;;;;9.93;3.17;;;;;;;3.41;100.00;99866.97;5071041;28;20029;-63
2021/01/23 08:39:48;;;;;;;8.45;2.40;;;;;;;3.42;100.00;99874.03;5070858;28;20116;-62
2021/01/23 08:42:14;;;;;;;7.72;2.60;;;;;;;3.42;100.00;99868.63;5069977;28;20068;-63
2021/01/23 08:44:40;;;;;;;8.95;2.65;;;;;;;3.40;100.00;99870.72;5070813;28;20163;-63
2021/01/23 08:47:06;;;;;;;7.95;2.90;;;;;;;3.42;100.00;99874.03;5070855;28;20115;-62
2021/01/23 08:49:32;;;;;;;8.60;2.30;;;;;;;3.42;100.00;99884.84;5070743;28;20371;-63
2021/01/23 08:51:58;;;;;;;9.85;2.80;;;;;;;3.43;100.00;99886.47;5071297;28;20523;-62
2021/01/23 08:54:24;;;;;;;9.75;3.00;;;;;;;3.45;100.00;99889.78;5070749;28;20033;-63
2021/01/23 08:56:50;;;;;;;9.68;3.92;;;;;;;3.48;100.00;99894.78;5070732;28;20040;-63
2021/01/23 08:59:16;;;;;;;12.05;3.47;;;;;;;3.51;100.00;99888.94;5070720;28;20040;-63
2021/01/23 09:01:42;;;;;;;15.00;4.43;;;;;;;3.54;100.00;99888.47;5070787;28;20047;-63
2021/01/23 09:04:08;;;;;;;7.80;4.25;;;;;;;3.54;100.00;99893.88;5070404;28;20064;-62
2021/01/23 09:06:33;;;;;;;9.48;4.72;;;;;;;3.55;100.00;99900.94;5071157;28;20036;-63
2021/01/23 09:08:59;;;;;;;10.38;4.43;;;;;;;3.55;100.00;99890.13;5070636;28;20040;-63
2021/01/23 09:11:24;;;;;;;13.55;5.00;;;;;;;3.56;100.00;99897.19;5070682;28;20383;-62
2021/01/23 09:13:51;;;;;;;9.57;4.88;;;;;;;3.56;100.00;99892.63;5070570;28;20399;-63
2021/01/23 09:16:17;;;;;;;9.13;4.30;;;;;;;3.55;100.00;99901.75;5070565;28;20048;-63
2021/01/23 09:18:42;;;;;;;10.30;4.47;;;;;;;3.55;100.00;99892.84;5070917;28;20040;-63
2021/01/23 09:21:08;;;;;;;10.95;4.90;;;;;;;3.57;100.00;99894.25;5070480;28;20127;-63
2021/01/23 09:23:33;;;;;;;15.05;4.97;;;;;;;3.59;100.00;99891.34;5070413;28;20079;-63
2021/01/23 09:26:02;;;;;;;6.43;4.00;;;;;;;3.63;100.00;99897.94;5070685;28;20052;-63
2021/01/23 09:28:31;;;;;;;9.90;2.92;;;;;;;3.67;100.00;99904.59;5070414;28;20127;-63
2021/01/23 09:30:58;;;;;;;7.35;3.20;;;;;;;3.70;100.00;99909.53;5070350;28;20033;-63
2021/01/23 09:33:24;;;;;;;7.78;2.92;;;;;;;3.74;100.00;99909.91;5070490;28;20510;-63
2021/01/23 09:35:49;;;;;;;15.02;3.78;;;;;;;3.74;100.00;99913.44;5070332;28;20032;-63
2021/01/23 09:38:15;;;;;;;8.43;2.70;;;;;;;3.80;100.00;99919.81;5070370;28;20381;-63
2021/01/23 09:40:40;;;;;;;30.38;3.88;;;;;;;3.83;100.00;99922.94;5070322;28;20029;-62
2021/01/23 09:43:06;;;;;;;9.10;3.33;;;;;;;3.88;100.00;99923.09;5070334;28;20398;-62
2021/01/23 09:45:35;;;;;;;11.15;3.20;;;;;;;3.94;100.00;99935.72;5070078;28;20110;-63
2021/01/23 09:48:01;;;;;;;9.07;3.38;;;;;;;4.00;100.00;99936.72;5070459;28;20040;-62
2021/01/23 09:50:27;;;;;;;9.52;4.28;;;;;;;4.05;100.00;99933.34;5070278;28;20043;-63
2021/01/23 09:52:53;;;;;;;9.82;4.03;;;;;;;4.11;100.00;99940.56;5070177;28;20045;-63
2021/01/23 09:55:19;;;;;;;8.20;4.05;;;;;;;4.16;100.00;99940.69;5073447;28;20032;-63
2021/01/23 09:57:44;;;;;;;8.52;3.70;;;;;;;4.20;100.00;99941.94;5055921;28;20098;-63
2021/01/23 10:00:11;;;;;;;8.15;3.63;;;;;;;4.24;100.00;99937.72;5074027;28;20078;-63
2021/01/23 10:02:37;;;;;;;6.20;3.75;;;;;;;4.26;100.00;99949.13;5073771;28;20033;-62
2021/01/23 10:05:04;;;;;;;10.15;3.65;;;;;;;4.30;100.00;99946.81;5073519;28;20040;-63
2021/01/23 10:07:29;;;;;;;4.72;3.05;;;;;;;4.36;100.00;99951.34;5073710;28;20139;-62
2021/01/23 10:09:55;;;;;;;7.30;3.00;;;;;;;4.36;100.00;99952.16;5073530;28;20186;-63
2021/01/23 10:12:21;;;;;;;8.52;3.65;;;;;;;4.39;100.00;99946.31;5073511;28;20039;-62
2021/01/23 10:14:46;;;;;;;5.90;2.67;;;;;;;4.47;100.00;99959.53;5073672;28;20125;-63
2021/01/23 10:17:15;;;;;;;7.28;3.00;;;;;;;4.52;100.00;99967.81;5073629;28;20055;-63
2021/01/23 10:19:41;;;;;;;6.30;2.15;;;;;;;4.56;100.00;99957.38;5055334;28;20040;-63
2021/01/23 10:22:07;;;;;;;3.92;2.45;;;;;;;4.66;100.00;99970.34;5073502;28;20052;-63
2021/01/23 10:24:32;;;;;;;8.57;2.53;;;;;;;4.76;100.00;99973.38;5073289;28;20462;-62
2021/01/23 10:26:58;;;;;;;5.10;2.20;;;;;;;4.84;100.00;99970.34;5073311;28;20051;-63
2021/01/23 10:29:24;;;;;;;6.18;2.15;;;;;;;4.94;100.00;99972.53;5055339;28;20036;-63
2021/01/23 10:31:49;;;;;;;6.45;2.90;;;;;;;5.04;100.00;99978.25;5073395;28;20359;-62
2021/01/23 10:34:15;;;;;;;5.45;2.28;;;;;;;5.14;100.00;99981.22;5073080;28;20474;-62
2021/01/23 10:36:41;;;;;;;8.25;3.17;;;;;;;5.19;100.00;99967.00;5073234;28;20355;-62
2021/01/23 10:39:06;;;;;;;7.88;2.90;;;;;;;5.29;100.00;99972.72;5073184;28;20068;-63
2021/01/23 10:41:32;;;;;;;4.75;2.50;;;;;;;5.39;100.00;99973.81;5055170;28;20036;-63
2021/01/23 10:43:58;;;;;;;6.38;2.35;;;;;;;5.48;100.00;99966.19;5072863;28;20123;-63
2021/01/23 10:46:23;;;;;;;4.63;2.40;;;;;;;5.52;100.00;99972.78;5073165;28;20452;-62
2021/01/23 10:48:49;;;;;;;4.10;2.35;;;;;;;5.62;100.00;99975.78;5073061;28;20167;-63
2021/01/23 10:51:15;;;;;;;5.95;1.85;;;;;;;5.67;100.00;99975.91;5072802;28;20055;-62
2021/01/23 10:53:40;;;;;;;3.60;2.00;;;;;;;5.81;100.00;99970.28;5072885;28;20490;-63
2021/01/23 10:56:06;;;;;;;7.57;2.30;;;;;;;5.89;100.00;99964.53;5054964;28;20036;-63
2021/01/23 10:58:33;;;;;;;4.80;2.00;;;;;;;6.01;100.00;99982.50;5072801;28;20499;-62
2021/01/23 11:00:58;;;;;;;4.95;1.63;;;;;;;6.07;100.00;99975.31;5072685;28;20086;-63
2021/01/23 11:03:24;;;;;;;3.08;1.95;;;;;;;6.15;100.00;99979.56;5054526;28;20364;-63
2021/01/23 11:05:51;;;;;;;3.40;1.83;;;;;;;6.21;100.00;99975.91;5050032;28;20056;-63
2021/01/23 11:08:17;;;;;;;3.53;1.50;;;;;;;6.26;100.00;99979.59;5052572;28;20376;-63
2021/01/23 11:10:42;;;;;;;2.85;1.80;;;;;;;6.40;100.00;99991.00;5052586;28;20123;-63
2021/01/23 11:13:08;;;;;;;3.85;1.80;;;;;;;6.48;100.00;99984.41;5052484;28;20483;-63
2021/01/23 11:15:33;;;;;;;3.53;1.50;;;;;;;6.56;100.00;99986.75;5052610;28;20380;-63
2021/01/23 11:17:59;;;;;;;7.28;2.00;;;;;;;6.59;100.00;99989.00;5052432;28;20060;-63
2021/01/23 11:20:26;;;;;;;6.78;1.70;;;;;;;6.69;100.00;99997.38;5052441;28;20059;-62
2021/01/23 11:22:51;;;;;;;2.42;1.67;;;;;;;6.75;100.00;100004.56;5052348;28;20033;-63
2021/01/23 11:25:17;;;;;;;4.93;1.70;;;;;;;6.78;100.00;100006.81;5050790;28;20041;-63
2021/01/23 11:27:43;;;;;;;7.65;1.67;;;;;;;6.79;100.00;100005.75;5052386;28;20162;-63
2021/01/23 11:30:10;;;;;;;4.15;1.95;;;;;;;6.87;100.00;100023.56;5052214;28;20037;-63
2021/01/23 11:32:39;;;;;;;3.50;1.15;;;;;;;6.93;100.00;100017.97;5052236;28;20040;-62
2021/01/23 11:35:05;;;;;;;4.07;1.48;;;;;;;6.94;100.00;100014.22;5052267;28;20074;-62
2021/01/23 11:37:31;;;;;;;6.40;1.33;;;;;;;6.98;100.00;100025.44;5051177;28;20040;-63
2021/01/23 11:39:57;;;;;;;5.78;1.52;;;;;;;7.05;100.00;100026.13;5050969;28;20491;-63